Informes METAR cercanos


LEVC - Manises, Valencia, ESPAÑA
Distance from station: NNE 72km
Actualización: 10/07/2020 07:00
Algunas nubes
Algunas nubes
 Viento del NO
Viento: NO 7 km/h
Temperatura: 23°C
Rocío: 18°C
Humedad: 74%
Barómetro: 1015 hPa
Clouds: Algunas nubes
Visibility: 10 km
Cloud details: Algunas nubes 549 m
2020/07/10 05:00 LEVC 100500Z 32004KT 9999 FEW018 23/18 Q1015 NOSIG
LEAL - El Altet, Alicante, ESPAÑA
Distance from station: S 70km
Actualización: 10/07/2020 07:00
Despejado
Despejado
 Viento del varies
Viento: varies 4 km/h
Temperatura: 20°C
Rocío: 16°C
Humedad: 78%
Barómetro: 1013 hPa
Resumen: Despejado
Visibility: Mas de 10 km
2020/07/10 05:00 LEAL 100500Z VRB02KT CAVOK 20/16 Q1013 NOSIG
 
LELC - San Javier, Murcia, ESPAÑA
Distance from station: SSO 188km
Actualización: 10/07/2020 07:00
Despejado
Despejado
 Viento del NO
Viento: NO 7 km/h
Temperatura: 21°C
Rocío: 18°C
Humedad: 83%
Barómetro: 1013 hPa
Resumen: Despejado
Visibility: Mas de 10 km
2020/07/10 05:00 LELC 100500Z 32004KT CAVOK 21/18 Q1013 NOSIG
LEAB - Los Llanos, Albacete, ESPAÑA
Distance from station: O 143km
Actualización: 10/07/2020 07:00
Despejado
Despejado
 Viento del S
Viento: S 6 km/h
Temperatura: 15°C
Rocío: 12°C
Humedad: 82%
Barómetro: 1017 hPa
Resumen: Despejado
Visibility: Mas de 10 km
2020/07/10 05:00 LEAB 100500Z 18003KT CAVOK 15/12 Q1017 NOSIG